Time;durP1;ratioP1;P1;durP2;ratioP2;P2;SDS_P1;SDS_P2;PMS_P1;PMS_P2;Temp;Humidity;BMP_temperature;BMP_pressure;BME280_temperature;BME280_humidity;BME280_pressure;Samples;Min_cycle;Max_cycle;Signal;HPM_P1;HPM_P2
2023/11/29 00:02:39;;;;;;;5.60;2.87;;;;;;;;;;5020010;28;21739;-61
2023/11/29 00:05:36;;;;;;;4.63;2.80;;;;;;;;;;5012085;28;20057;-61
2023/11/29 00:08:21;;;;;;;6.97;3.25;;;;;;;;;;5021132;28;20565;-61
2023/11/29 00:11:15;;;;;;;5.30;2.90;;;;;;;;;;5019360;28;20061;-61
2023/11/29 00:14:02;;;;;;;7.13;3.30;;;;;;;;;;5017486;28;20053;-61
2023/11/29 00:16:56;;;;;;;5.07;2.93;;;;;;;;;;5019952;28;20053;-61
2023/11/29 00:19:31;;;;;;;6.37;2.70;;;;;;;;;;5019276;28;20790;-61
2023/11/29 00:22:05;;;;;;;4.87;2.80;;;;;;;;;;5016402;28;20714;-60
2023/11/29 00:24:33;;;;;;;4.77;3.03;;;;;;;;;;5019141;28;20049;-65
2023/11/29 00:27:00;;;;;;;;;;;;;;;;;;5017243;28;20496;-60
2023/11/29 00:29:35;;;;;;;5.43;3.10;;;;;;;;;;5015330;28;20732;-59
2023/11/29 00:32:02;;;;;;;6.50;2.87;;;;;;;;;;5019683;28;20066;-61
2023/11/29 00:34:36;;;;;;;7.07;3.10;;;;;;;;;;5016330;28;20049;-70
2023/11/29 00:37:04;;;;;;;6.27;3.27;;;;;;;;;;5015702;28;20060;-70
2023/11/29 00:39:32;;;;;;;6.20;3.00;;;;;;;;;;5017171;28;20646;-69
2023/11/29 00:42:06;;;;;;;5.33;3.00;;;;;;;;;;5012260;28;20281;-69
2023/11/29 00:44:34;;;;;;;7.30;3.30;;;;;;;;;;5012482;28;20068;-54
2023/11/29 00:47:01;;;;;;;5.87;3.10;;;;;;;;;;5013285;28;20061;-54
2023/11/29 00:49:35;;;;;;;4.83;3.20;;;;;;;;;;5014231;28;20057;-52
2023/11/29 00:52:02;;;;;;;5.47;2.80;;;;;;;;;;5011899;28;20459;-53
2023/11/29 00:54:36;;;;;;;4.73;2.83;;;;;;;;;;5009336;28;20071;-50
2023/11/29 00:57:11;;;;;;;4.93;2.93;;;;;;;;;;5007959;28;20123;-54
2023/11/29 00:59:45;;;;;;;7.27;3.43;;;;;;;;;;5013040;28;20115;-56
2023/11/29 01:02:12;;;;;;;5.70;3.10;;;;;;;;;;5012684;28;20081;-58
2023/11/29 01:04:40;;;;;;;4.23;3.07;;;;;;;;;;5014040;28;20065;-58
2023/11/29 01:07:14;;;;;;;4.40;2.70;;;;;;;;;;5027190;28;20410;-59
2023/11/29 01:09:41;;;;;;;5.07;3.00;;;;;;;;;;5015366;28;20061;-60
2023/11/29 01:12:16;;;;;;;6.53;3.37;;;;;;;;;;5019772;28;20559;-61
2023/11/29 01:14:43;;;;;;;5.47;2.87;;;;;;;;;;5019112;28;20470;-60
2023/11/29 01:17:10;;;;;;;5.80;3.10;;;;;;;;;;5018381;28;20084;-58
2023/11/29 01:19:45;;;;;;;4.33;3.00;;;;;;;;;;5021378;28;20073;-58
2023/11/29 01:22:12;;;;;;;5.40;3.10;;;;;;;;;;5020293;28;20059;-57
2023/11/29 01:24:39;;;;;;;;;;;;;;;;;;5017100;28;20076;-58
2023/11/29 01:27:13;;;;;;;4.73;2.70;;;;;;;;;;5016025;28;19928;-60
2023/11/29 01:29:41;;;;;;;6.17;3.03;;;;;;;;;;5016962;28;20479;-56
2023/11/29 01:32:15;;;;;;;5.50;2.87;;;;;;;;;;5015813;28;20053;-60
2023/11/29 01:34:43;;;;;;;6.13;2.77;;;;;;;;;;5013776;28;20063;-61
2023/11/29 01:37:16;;;;;;;4.53;3.07;;;;;;;;;;5019078;28;20065;-60
2023/11/29 01:39:50;;;;;;;7.80;3.00;;;;;;;;;;5014582;28;20057;-61
2023/11/29 01:42:17;;;;;;;;;;;;;;;;;;5019298;28;20115;-61
2023/11/29 01:44:51;;;;;;;7.53;3.20;;;;;;;;;;5011166;28;19975;-61
2023/11/29 01:47:19;;;;;;;5.97;3.00;;;;;;;;;;5034120;28;20173;-61
2023/11/29 01:49:46;;;;;;;6.87;3.20;;;;;;;;;;5018270;28;20053;-65
2023/11/29 01:52:20;;;;;;;5.03;2.80;;;;;;;;;;5019116;28;20045;-66
2023/11/29 01:54:47;;;;;;;;;;;;;;;;;;5017496;28;20126;-65
2023/11/29 01:57:28;;;;;;;4.33;2.80;;;;;;;;;;5013761;28;19937;-65
2023/11/29 02:00:03;;;;;;;5.53;2.80;;;;;;;;;;5020126;28;20047;-58
2023/11/29 02:02:36;;;;;;;5.47;3.07;;;;;;;;;;5016676;28;20067;-58
2023/11/29 02:05:04;;;;;;;;;;;;;;;;;;5019438;28;20484;-58
2023/11/29 02:07:31;;;;;;;4.40;3.07;;;;;;;;;;5019824;28;19937;-58
2023/11/29 02:10:05;;;;;;;5.87;2.57;;;;;;;;;;5019017;28;20057;-57
2023/11/29 02:12:33;;;;;;;4.70;2.87;;;;;;;;;;5013314;28;20132;-58
2023/11/29 02:15:07;;;;;;;4.77;2.87;;;;;;;;;;5017031;28;20170;-58
2023/11/29 02:17:34;;;;;;;4.53;2.90;;;;;;;;;;5018344;28;20623;-63
2023/11/29 02:20:03;;;;;;;;;;;;;;;;;;5018442;28;20668;-64
2023/11/29 02:22:38;;;;;;;3.37;2.60;;;;;;;;;;5015174;28;19924;-63
2023/11/29 02:25:06;;;;;;;5.37;3.00;;;;;;;;;;5015376;28;20053;-65
2023/11/29 02:27:33;;;;;;;6.23;3.03;;;;;;;;;;5018291;28;20341;-56
2023/11/29 02:30:07;;;;;;;6.23;2.60;;;;;;;;;;5017988;28;20103;-67
2023/11/29 02:32:34;;;;;;;5.60;3.00;;;;;;;;;;5016329;28;20057;-59
2023/11/29 02:35:07;;;;;;;6.30;3.40;;;;;;;;;;5016883;28;20076;-59
2023/11/29 02:37:35;;;;;;;;;;;;;;;;;;5020336;28;20061;-59
2023/11/29 02:40:09;;;;;;;4.33;2.67;;;;;;;;;;5017059;28;19921;-59
2023/11/29 02:42:36;;;;;;;4.37;2.97;;;;;;;;;;5021442;28;20222;-59
2023/11/29 02:45:03;;;;;;;9.38;3.35;;;;;;;;;;5024242;28;20053;-59
2023/11/29 02:47:37;;;;;;;3.77;2.77;;;;;;;;;;5022700;28;20057;-67
2023/11/29 02:50:05;;;;;;;5.27;2.83;;;;;;;;;;5022274;28;20061;-67
2023/11/29 02:52:33;;;;;;;4.13;2.93;;;;;;;;;;5005922;28;20049;-67
2023/11/29 02:55:07;;;;;;;4.57;2.47;;;;;;;;;;5017475;28;20832;-67
2023/11/29 02:57:40;;;;;;;4.53;2.63;;;;;;;;;;5017596;28;20056;-59
2023/11/29 03:00:21;;;;;;;6.27;3.07;;;;;;;;;;5024153;28;20181;-57
2023/11/29 03:02:48;;;;;;;5.27;2.90;;;;;;;;;;5022957;28;20424;-58
2023/11/29 03:05:22;;;;;;;3.90;2.63;;;;;;;;;;5024082;28;20069;-59
2023/11/29 03:07:50;;;;;;;4.93;2.87;;;;;;;;;;5023769;28;20156;-57
2023/11/29 03:10:17;;;;;;;;;;;;;;;;;;5021694;28;20150;-58
2023/11/29 03:12:50;;;;;;;5.03;2.77;;;;;;;;;;5020433;28;21615;-56
2023/11/29 03:15:18;;;;;;;;;;;;;;;;;;5021106;28;20519;-67
2023/11/29 03:17:45;;;;;;;4.97;2.80;;;;;;;;;;5018088;28;19932;-67
2023/11/29 03:20:18;;;;;;;6.17;3.13;;;;;;;;;;5026830;28;20053;-67
2023/11/29 03:22:45;;;;;;;;;;;;;;;;;;5019961;28;20046;-67
2023/11/29 03:25:19;;;;;;;6.83;3.47;;;;;;;;;;5023104;28;19929;-63
2023/11/29 03:27:46;;;;;;;;;;;;;;;;;;5024958;28;20053;-63
2023/11/29 03:30:13;;;;;;;5.93;3.10;;;;;;;;;;5026407;28;19925;-63
2023/11/29 03:32:47;;;;;;;4.93;2.67;;;;;;;;;;5021045;28;20060;-63
2023/11/29 03:35:15;;;;;;;8.67;2.73;;;;;;;;;;5023410;28;20061;-63
2023/11/29 03:37:48;;;;;;;4.40;2.97;;;;;;;;;;5024510;28;20052;-63
2023/11/29 03:40:15;;;;;;;;;;;;;;;;;;5025001;28;20049;-63
2023/11/29 03:42:43;;;;;;;5.00;2.80;;;;;;;;;;5022132;28;19920;-50
2023/11/29 03:45:16;;;;;;;6.73;3.40;;;;;;;;;;5022836;28;20065;-50
2023/11/29 03:47:43;;;;;;;;;;;;;;;;;;5018108;28;20412;-50
2023/11/29 03:50:17;;;;;;;7.07;3.43;;;;;;;;;;5023718;28;19984;-50
2023/11/29 03:52:45;;;;;;;4.00;2.80;;;;;;;;;;5020864;28;20049;-57
2023/11/29 03:55:12;;;;;;;5.10;2.77;;;;;;;;;;5019805;28;20057;-56
2023/11/29 03:57:53;;;;;;;6.20;3.30;;;;;;;;;;5018629;28;20119;-67
2023/11/29 04:00:20;;;;;;;5.60;3.13;;;;;;;;;;5022510;28;20538;-67
2023/11/29 04:02:54;;;;;;;4.97;3.13;;;;;;;;;;5015432;28;20064;-67
2023/11/29 04:05:23;;;;;;;8.93;3.20;;;;;;;;;;5020334;28;20147;-67
2023/11/29 04:07:50;;;;;;;6.13;3.13;;;;;;;;;;5020543;28;20111;-66
2023/11/29 04:10:24;;;;;;;5.23;3.43;;;;;;;;;;5021237;28;20115;-65
2023/11/29 04:12:51;;;;;;;;;;;;;;;;;;5024376;28;20053;-63
2023/11/29 04:15:25;;;;;;;6.03;3.00;;;;;;;;;;5020654;28;23884;-65
2023/11/29 04:17:52;;;;;;;;;;;;;;;;;;5020617;28;20064;-65
2023/11/29 04:20:20;;;;;;;6.40;3.00;;;;;;;;;;5015858;28;20350;-66
2023/11/29 04:22:53;;;;;;;6.43;3.40;;;;;;;;;;5018418;28;20500;-59
2023/11/29 04:25:21;;;;;;;3.78;2.90;;;;;;;;;;5020049;28;20095;-58
2023/11/29 04:27:54;;;;;;;4.67;3.00;;;;;;;;;;5019981;28;20046;-58
2023/11/29 04:30:21;;;;;;;;;;;;;;;;;;5016780;28;20061;-55
2023/11/29 04:32:51;;;;;;;6.23;3.23;;;;;;;;;;5020237;28;19947;-57
2023/11/29 04:35:26;;;;;;;4.70;3.20;;;;;;;;;;5022858;28;20788;-58
2023/11/29 04:37:53;;;;;;;5.70;3.03;;;;;;;;;;5021034;28;20065;-57
2023/11/29 04:40:26;;;;;;;4.83;3.10;;;;;;;;;;5019671;28;20062;-58
2023/11/29 04:42:53;;;;;;;6.18;3.00;;;;;;;;;;5019149;28;20118;-58
2023/11/29 04:45:27;;;;;;;4.07;2.97;;;;;;;;;;5020925;28;20057;-60
2023/11/29 04:47:54;;;;;;;;;;;;;;;;;;5018575;28;20061;-59
2023/11/29 04:50:22;;;;;;;4.77;3.07;;;;;;;;;;5017016;28;20296;-65
2023/11/29 04:52:55;;;;;;;5.07;3.53;;;;;;;;;;5019462;28;20061;-51
2023/11/29 04:55:22;;;;;;;6.50;3.47;;;;;;;;;;5010246;28;20481;-49
2023/11/29 04:57:49;;;;;;;;;;;;;;;;;;5013061;28;20049;-49
2023/11/29 05:00:23;;;;;;;4.53;2.90;;;;;;;;;;5018247;28;19925;-56
2023/11/29 05:02:50;;;;;;;;;;;;;;;;;;5018538;28;20116;-49
2023/11/29 05:05:24;;;;;;;4.37;2.73;;;;;;;;;;5019473;28;20622;-50
2023/11/29 05:07:53;;;;;;;;;;;;;;;;;;5018859;28;20515;-51
2023/11/29 05:10:21;;;;;;;5.53;3.20;;;;;;;;;;5015944;28;19967;-60
2023/11/29 05:12:54;;;;;;;5.40;3.17;;;;;;;;;;5016902;28;20054;-60
2023/11/29 05:15:21;;;;;;;;;;;;;;;;;;5018805;28;20139;-61
2023/11/29 05:17:55;;;;;;;5.97;3.27;;;;;;;;;;5016784;28;19951;-60
2023/11/29 05:20:29;;;;;;;5.43;3.10;;;;;;;;;;5021053;28;20064;-61
2023/11/29 05:22:56;;;;;;;;;;;;;;;;;;5006973;28;20053;-59
2023/11/29 05:25:26;;;;;;;5.23;2.70;;;;;;;;;;5017254;28;19921;-59
2023/11/29 05:27:59;;;;;;;6.23;3.67;;;;;;;;;;5015626;28;20487;-59
2023/11/29 05:30:26;;;;;;;6.88;3.42;;;;;;;;;;5017774;28;20512;-59
2023/11/29 05:33:03;;;;;;;5.40;3.20;;;;;;;;;;5015954;28;20067;-59
2023/11/29 05:35:33;;;;;;;5.73;3.40;;;;;;;;;;5015704;28;20057;-58
2023/11/29 05:38:06;;;;;;;5.33;3.30;;;;;;;;;;5013469;28;20427;-69
2023/11/29 05:40:33;;;;;;;7.65;3.38;;;;;;;;;;5008383;28;20053;-68
2023/11/29 05:43:07;;;;;;;5.73;3.43;;;;;;;;;;5013650;28;20119;-69
2023/11/29 05:45:35;;;;;;;;;;;;;;;;;;5016287;28;20061;-68
2023/11/29 05:48:03;;;;;;;5.50;2.47;;;;;;;;;;5017184;28;19971;-57
2023/11/29 05:50:36;;;;;;;5.37;2.67;;;;;;;;;;5032114;28;20050;-54
2023/11/29 05:53:04;;;;;;;8.17;3.47;;;;;;;;;;5015004;28;20046;-51
2023/11/29 05:55:34;;;;;;;6.93;3.53;;;;;;;;;;5010685;28;20606;-53
2023/11/29 05:58:14;;;;;;;7.33;3.20;;;;;;;;;;5012742;28;20862;-53
2023/11/29 06:00:41;;;;;;;8.50;3.30;;;;;;;;;;5020019;28;20056;-50
2023/11/29 06:03:15;;;;;;;6.30;2.93;;;;;;;;;;5014796;28;20148;-50
2023/11/29 06:05:43;;;;;;;;;;;;;;;;;;5020814;28;20057;-60
2023/11/29 06:08:10;;;;;;;5.93;3.13;;;;;;;;;;5019829;28;19971;-61
2023/11/29 06:10:44;;;;;;;6.00;3.37;;;;;;;;;;5019535;28;20053;-61
2023/11/29 06:13:11;;;;;;;4.20;2.73;;;;;;;;;;5015074;28;20327;-61
2023/11/29 06:15:38;;;;;;;8.77;3.10;;;;;;;;;;5020615;28;20057;-61
2023/11/29 06:18:15;;;;;;;5.13;3.33;;;;;;;;;;5020041;28;20053;-61
2023/11/29 06:20:42;;;;;;;6.57;3.57;;;;;;;;;;5020588;28;20057;-60
2023/11/29 06:23:17;;;;;;;7.90;3.10;;;;;;;;;;5015443;28;20057;-61
2023/11/29 06:25:44;;;;;;;7.83;3.47;;;;;;;;;;5017366;28;20060;-60
2023/11/29 06:28:11;;;;;;;;;;;;;;;;;;5019428;28;20069;-60
2023/11/29 06:30:45;;;;;;;7.23;3.40;;;;;;;;;;5015813;28;19929;-61
2023/11/29 06:33:12;;;;;;;5.93;3.00;;;;;;;;;;5018414;28;20328;-60
2023/11/29 06:35:40;;;;;;;9.17;3.37;;;;;;;;;;5014993;28;20054;-60
2023/11/29 06:38:13;;;;;;;5.43;3.27;;;;;;;;;;5020318;28;20057;-60
2023/11/29 06:40:41;;;;;;;;;;;;;;;;;;5020157;28;20085;-60
2023/11/29 06:43:13;;;;;;;6.43;3.00;;;;;;;;;;5014795;28;19925;-60
2023/11/29 06:45:46;;;;;;;6.07;2.60;;;;;;;;;;5017063;28;20053;-60
2023/11/29 06:48:14;;;;;;;6.93;3.20;;;;;;;;;;5021225;28;20057;-55
2023/11/29 06:50:47;;;;;;;4.67;2.97;;;;;;;;;;5019270;28;20056;-49
2023/11/29 06:53:15;;;;;;;6.63;3.53;;;;;;;;;;5017044;28;20145;-54
2023/11/29 06:55:43;;;;;;;5.90;3.50;;;;;;;;;;5017587;28;20580;-51
2023/11/29 06:58:23;;;;;;;7.20;3.40;;;;;;;;;;5016807;28;20049;-53
2023/11/29 07:00:50;;;;;;;5.53;3.23;;;;;;;;;;5018839;28;20064;-52
2023/11/29 07:03:26;;;;;;;6.00;3.10;;;;;;;;;;5015983;28;20057;-60
2023/11/29 07:05:56;;;;;;;5.63;3.10;;;;;;;;;;5017842;28;20058;-61
2023/11/29 07:08:24;;;;;;;5.17;3.30;;;;;;;;;;5020474;28;20487;-60
2023/11/29 07:10:59;;;;;;;7.97;3.70;;;;;;;;;;5017355;28;20054;-60
2023/11/29 07:13:26;;;;;;;8.80;3.97;;;;;;;;;;5017574;28;20693;-60
2023/11/29 07:16:00;;;;;;;7.10;4.10;;;;;;;;;;5018017;28;20050;-69
2023/11/29 07:18:27;;;;;;;8.63;3.75;;;;;;;;;;5018522;28;20107;-68
2023/11/29 07:20:55;;;;;;;4.53;3.30;;;;;;;;;;5014998;28;20055;-69
2023/11/29 07:23:28;;;;;;;9.13;3.57;;;;;;;;;;5013995;28;20053;-69
2023/11/29 07:25:56;;;;;;;;;;;;;;;;;;5015114;28;20519;-69
2023/11/29 07:28:24;;;;;;;5.10;3.00;;;;;;;;;;5016339;28;19975;-69
2023/11/29 07:30:58;;;;;;;5.17;3.43;;;;;;;;;;5020636;28;20456;-60
2023/11/29 07:33:25;;;;;;;7.32;3.75;;;;;;;;;;5021952;28;20111;-60
2023/11/29 07:36:00;;;;;;;8.23;3.03;;;;;;;;;;5018000;28;20053;-60
2023/11/29 07:38:27;;;;;;;7.60;3.08;;;;;;;;;;5024803;28;20069;-60
2023/11/29 07:40:54;;;;;;;;;;;;;;;;;;5019672;28;20057;-60
2023/11/29 07:43:27;;;;;;;6.07;2.77;;;;;;;;;;5035493;28;19929;-49
2023/11/29 07:45:54;;;;;;;;;;;;;;;;;;5020443;28;20057;-50
2023/11/29 07:48:28;;;;;;;4.07;2.77;;;;;;;;;;5022196;28;19932;-53
2023/11/29 07:50:56;;;;;;;;;;;;;;;;;;5023012;28;20045;-50
2023/11/29 07:53:24;;;;;;;4.72;2.83;;;;;;;;;;5021441;28;20559;-50
2023/11/29 07:55:57;;;;;;;6.03;3.37;;;;;;;;;;5019340;28;20056;-54
2023/11/29 07:58:32;;;;;;;5.47;3.42;;;;;;;;;;5015840;28;20065;-50
2023/11/29 08:01:06;;;;;;;7.33;3.00;;;;;;;;;;5022036;28;20068;-60
2023/11/29 08:03:41;;;;;;;5.20;2.88;;;;;;;;;;5022330;28;20152;-60
2023/11/29 08:06:08;;;;;;;5.60;3.30;;;;;;;;;;5021577;28;20579;-60
2023/11/29 08:08:41;;;;;;;5.93;3.47;;;;;;;;;;5021367;28;20068;-60
2023/11/29 08:11:09;;;;;;;6.45;3.42;;;;;;;;;;5019566;28;20054;-50
2023/11/29 08:13:36;;;;;;;5.13;3.10;;;;;;;;;;5018623;28;20049;-52
2023/11/29 08:16:09;;;;;;;6.90;3.17;;;;;;;;;;5022188;28;20851;-49
2023/11/29 08:18:36;;;;;;;5.13;3.10;;;;;;;;;;5021413;28;20057;-52
2023/11/29 08:21:10;;;;;;;7.53;3.50;;;;;;;;;;5023116;28;20508;-49
2023/11/29 08:23:38;;;;;;;6.05;3.35;;;;;;;;;;5012248;28;20523;-53
2023/11/29 08:26:05;;;;;;;8.40;3.75;;;;;;;;;;5022257;28;20058;-49
2023/11/29 08:28:38;;;;;;;6.53;3.58;;;;;;;;;;5020425;28;20787;-69
2023/11/29 08:31:05;;;;;;;8.40;2.75;;;;;;;;;;5014578;28;20128;-69
2023/11/29 08:33:35;;;;;;;5.07;3.03;;;;;;;;;;5018784;28;20072;-68
2023/11/29 08:36:12;;;;;;;5.72;3.47;;;;;;;;;;5022036;28;20049;-69
2023/11/29 08:38:40;;;;;;;5.47;3.50;;;;;;;;;;5020245;28;20103;-60
2023/11/29 08:41:14;;;;;;;4.72;2.97;;;;;;;;;;5022516;28;20081;-60
2023/11/29 08:43:41;;;;;;;5.05;3.50;;;;;;;;;;5018906;28;20066;-60
2023/11/29 08:46:08;;;;;;;5.82;3.05;;;;;;;;;;5017198;28;20081;-60
2023/11/29 08:48:42;;;;;;;5.43;2.97;;;;;;;;;;5020854;28;20520;-60
2023/11/29 08:51:10;;;;;;;7.78;3.83;;;;;;;;;;5023563;28;20057;-61
2023/11/29 08:53:43;;;;;;;5.95;3.58;;;;;;;;;;5019826;28;20056;-60
2023/11/29 08:56:17;;;;;;;4.35;2.90;;;;;;;;;;5018120;28;20053;-58
2023/11/29 08:58:58;;;;;;;3.58;2.70;;;;;;;;;;5018522;28;20057;-57
2023/11/29 09:01:32;;;;;;;3.40;2.38;;;;;;;;;;5017544;28;20062;-58
2023/11/29 09:04:05;;;;;;;5.03;2.78;;;;;;;;;;5019677;28;20076;-58
2023/11/29 09:06:33;;;;;;;3.63;2.50;;;;;;;;;;5019074;28;20053;-57
2023/11/29 09:09:00;;;;;;;3.40;2.17;;;;;;;;;;5022311;28;20061;-47
2023/11/29 09:11:35;;;;;;;3.33;2.20;;;;;;;;;;5017822;28;20079;-49
2023/11/29 09:14:02;;;;;;;;;;;;;;;;;;5017811;28;20397;-49
2023/11/29 09:16:29;;;;;;;3.78;2.03;;;;;;;;;;5019583;28;20016;-50
2023/11/29 09:19:03;;;;;;;3.75;2.13;;;;;;;;;;5021351;28;20111;-51
2023/11/29 09:21:35;;;;;;;3.38;1.90;;;;;;;;;;5019464;28;20045;-49
2023/11/29 09:24:08;;;;;;;3.75;2.67;;;;;;;;;;5018006;28;20468;-61
2023/11/29 09:26:42;;;;;;;4.93;2.85;;;;;;;;;;5017401;28;20447;-59
2023/11/29 09:29:09;;;;;;;4.07;2.55;;;;;;;;;;5019815;28;20167;-61
2023/11/29 09:31:43;;;;;;;3.33;2.15;;;;;;;;;;5018206;28;20053;-61
2023/11/29 09:34:17;;;;;;;4.53;2.53;;;;;;;;;;5019651;28;20061;-50
2023/11/29 09:36:44;;;;;;;3.45;2.58;;;;;;;;;;5017966;28;20068;-49
2023/11/29 09:39:13;;;;;;;6.28;3.35;;;;;;;;;;5017043;28;20303;-68
2023/11/29 09:41:47;;;;;;;7.13;3.88;;;;;;;;;;5020317;28;20055;-69
2023/11/29 09:44:14;;;;;;;5.60;3.60;;;;;;;;;;5018219;28;20049;-68
2023/11/29 09:46:42;;;;;;;7.68;3.88;;;;;;;;;;5016037;28;20475;-68
2023/11/29 09:49:16;;;;;;;7.35;4.20;;;;;;;;;;5017935;28;20057;-68
2023/11/29 09:51:44;;;;;;;;;;;;;;;;;;5019937;28;20115;-69
2023/11/29 09:54:11;;;;;;;4.05;1.73;;;;;;;;;;5018605;28;19924;-60
2023/11/29 09:57:05;;;;;;;2.75;1.83;;;;;;;;;;5019416;28;20156;-61
2023/11/29 09:59:39;;;;;;;3.63;2.55;;;;;;;;;;5010585;28;20045;-61
2023/11/29 10:02:14;;;;;;;4.60;2.70;;;;;;;;;;5030397;28;20060;-60
2023/11/29 10:04:41;;;;;;;;;;;;;;;;;;5018511;28;20077;-64
2023/11/29 10:07:09;;;;;;;3.22;2.15;;;;;;;;;;5019123;28;20043;-59
2023/11/29 10:09:49;;;;;;;5.90;2.70;;;;;;;;;;5018449;28;20045;-57
2023/11/29 10:12:16;;;;;;;3.78;2.60;;;;;;;;;;5020385;28;20551;-57
2023/11/29 10:14:50;;;;;;;5.50;2.80;;;;;;;;;;5030490;28;20061;-58
2023/11/29 10:17:30;;;;;;;4.38;2.90;;;;;;;;;;5019254;28;20057;-58
2023/11/29 10:20:06;;;;;;;4.80;3.08;;;;;;;;;;5018354;28;20064;-58
2023/11/29 10:22:34;;;;;;;4.40;2.75;;;;;;;;;;5015939;28;20131;-59
2023/11/29 10:25:23;;;;;;;7.03;3.20;;;;;;;;;;5016577;28;20468;-61
2023/11/29 10:27:57;;;;;;;5.18;2.75;;;;;;;;;;5018102;28;20743;-61
2023/11/29 10:30:25;;;;;;;5.40;3.17;;;;;;;;;;5021945;28;20049;-61
2023/11/29 10:32:59;;;;;;;4.65;2.70;;;;;;;;;;5019778;28;20052;-69
2023/11/29 10:35:30;;;;;;;4.97;3.42;;;;;;;;;;5013856;28;20145;-60
2023/11/29 10:37:58;;;;;;;5.30;2.88;;;;;;;;;;5020885;28;20103;-60
2023/11/29 10:40:31;;;;;;;6.68;3.00;;;;;;;;;;5020116;28;20123;-59
2023/11/29 10:43:01;;;;;;;5.30;2.80;;;;;;;;;;5016712;28;20109;-59
2023/11/29 10:45:36;;;;;;;6.60;2.95;;;;;;;;;;5018951;28;20091;-60
2023/11/29 10:48:07;;;;;;;4.80;3.05;;;;;;;;;;5018881;28;20088;-60
2023/11/29 10:50:45;;;;;;;4.85;2.72;;;;;;;;;;5020330;28;20108;-62
2023/11/29 10:53:13;;;;;;;4.85;2.85;;;;;;;;;;5011788;28;20501;-62
2023/11/29 10:55:48;;;;;;;3.50;2.90;;;;;;;;;;5018240;28;20451;-62
2023/11/29 10:58:30;;;;;;;2.95;2.20;;;;;;;;;;5032365;28;20607;-62
2023/11/29 11:01:05;;;;;;;3.70;2.70;;;;;;;;;;5014394;28;20061;-57
2023/11/29 11:03:42;;;;;;;5.30;3.00;;;;;;;;;;5022393;28;20057;-60
2023/11/29 11:06:22;;;;;;;3.40;2.17;;;;;;;;;;5022681;28;20103;-60
2023/11/29 11:08:50;;;;;;;4.38;2.72;;;;;;;;;;5020052;28;20057;-61
2023/11/29 11:11:42;;;;;;;4.47;2.83;;;;;;;;;;5021719;28;20071;-60
2023/11/29 11:14:13;;;;;;;6.63;3.20;;;;;;;;;;5020759;28;20049;-61
2023/11/29 11:16:56;;;;;;;3.33;2.20;;;;;;;;;;5022694;28;20100;-61
2023/11/29 11:19:31;;;;;;;4.35;2.92;;;;;;;;;;5023450;28;20053;-59
2023/11/29 11:22:11;;;;;;;4.30;2.70;;;;;;;;;;5021386;28;20103;-60
2023/11/29 11:24:58;;;;;;;5.50;3.28;;;;;;;;;;5021422;28;20058;-60
2023/11/29 11:27:37;;;;;;;4.82;3.17;;;;;;;;;;5025970;28;20081;-60
2023/11/29 11:30:07;;;;;;;5.18;3.03;;;;;;;;;;5021240;28;20381;-51
2023/11/29 11:32:40;;;;;;;4.97;3.55;;;;;;;;;;5020030;28;20045;-58
2023/11/29 11:37:53;;;;;;;4.82;3.03;;;;;;;;;;5021958;28;20045;-59
2023/11/29 11:40:21;;;;;;;4.45;3.30;;;;;;;;;;5020802;28;20061;-57
2023/11/29 11:42:56;;;;;;;4.40;3.00;;;;;;;;;;5021417;28;20099;-59
2023/11/29 11:45:24;;;;;;;6.07;3.30;;;;;;;;;;5020948;28;20501;-59
2023/11/29 11:47:51;;;;;;;5.45;3.30;;;;;;;;;;5020536;28;20153;-51
2023/11/29 11:50:26;;;;;;;4.43;3.03;;;;;;;;;;5013751;28;20144;-50
2023/11/29 11:52:53;;;;;;;5.37;3.17;;;;;;;;;;5019621;28;20061;-50
2023/11/29 11:55:21;;;;;;;5.23;3.40;;;;;;;;;;5021232;28;20238;-52
2023/11/29 11:58:03;;;;;;;5.22;3.63;;;;;;;;;;5021099;28;20065;-52
2023/11/29 12:00:39;;;;;;;5.88;3.40;;;;;;;;;;5017688;28;20057;-59
2023/11/29 12:03:13;;;;;;;6.87;3.47;;;;;;;;;;5022728;28;20154;-60
2023/11/29 12:05:41;;;;;;;3.28;2.47;;;;;;;;;;5023052;28;20061;-61
2023/11/29 12:08:09;;;;;;;5.10;3.15;;;;;;;;;;5019457;28;20073;-61
2023/11/29 12:10:43;;;;;;;6.50;3.63;;;;;;;;;;5020396;28;20060;-61
2023/11/29 12:13:10;;;;;;;5.88;3.78;;;;;;;;;;5021323;28;20056;-60
2023/11/29 12:15:44;;;;;;;5.73;3.80;;;;;;;;;;5023371;28;20500;-48
2023/11/29 12:18:18;;;;;;;7.17;3.50;;;;;;;;;;5019648;28;20085;-50
2023/11/29 12:20:52;;;;;;;6.70;3.70;;;;;;;;;;5018996;28;20054;-50
2023/11/29 12:23:28;;;;;;;5.75;3.50;;;;;;;;;;5020224;28;20184;-51
2023/11/29 12:26:04;;;;;;;8.60;4.40;;;;;;;;;;5019427;28;20046;-58
2023/11/29 12:28:37;;;;;;;5.23;2.87;;;;;;;;;;5021879;28;20057;-70
2023/11/29 12:31:04;;;;;;;9.10;4.50;;;;;;;;;;5021288;28;20076;-69
2023/11/29 12:33:38;;;;;;;6.97;3.70;;;;;;;;;;5021706;28;20064;-70
2023/11/29 12:36:07;;;;;;;6.73;2.93;;;;;;;;;;5020134;28;20121;-69
2023/11/29 12:38:34;;;;;;;6.90;4.17;;;;;;;;;;5022634;28;20128;-69
2023/11/29 12:41:08;;;;;;;3.03;1.93;;;;;;;;;;5032587;28;20077;-69
2023/11/29 12:43:35;;;;;;;7.87;3.90;;;;;;;;;;5023042;28;20112;-63
2023/11/29 12:46:02;;;;;;;6.68;3.55;;;;;;;;;;5016838;28;20053;-63
2023/11/29 12:48:35;;;;;;;5.93;3.13;;;;;;;;;;5018346;28;20069;-62
2023/11/29 12:51:03;;;;;;;;;;;;;;;;;;5020362;28;20062;-62
2023/11/29 12:53:30;;;;;;;7.07;4.00;;;;;;;;;;5018536;28;19931;-59
2023/11/29 12:56:03;;;;;;;8.37;4.20;;;;;;;;;;5022488;28;20141;-60
2023/11/29 12:58:37;;;;;;;;;;;;;;;;;;5016974;28;20496;-68
2023/11/29 13:01:12;;;;;;;8.83;4.03;;;;;;;;;;5016668;28;19925;-68
2023/11/29 13:03:39;;;;;;;4.60;3.10;;;;;;;;;;5021503;28;20049;-69
2023/11/29 13:06:06;;;;;;;7.82;4.07;;;;;;;;;;5017659;28;20205;-69
2023/11/29 13:08:41;;;;;;;7.47;4.27;;;;;;;;;;5020021;28;20065;-69
2023/11/29 13:11:08;;;;;;;9.93;3.90;;;;;;;;;;5016932;28;20054;-68
2023/11/29 13:13:35;;;;;;;;;;;;;;;;;;5021518;28;20080;-69
2023/11/29 13:16:11;;;;;;;7.17;4.30;;;;;;;;;;5020938;28;19948;-69
2023/11/29 13:18:38;;;;;;;5.83;3.50;;;;;;;;;;5021095;28;20076;-69
2023/11/29 13:21:13;;;;;;;5.17;3.13;;;;;;;;;;5016488;28;20049;-68
2023/11/29 13:23:40;;;;;;;8.83;4.10;;;;;;;;;;5017502;28;20049;-61
2023/11/29 13:26:07;;;;;;;7.85;3.92;;;;;;;;;;5007771;28;20057;-69
2023/11/29 13:28:40;;;;;;;10.03;2.90;;;;;;;;;;5018623;28;20126;-69
2023/11/29 13:31:08;;;;;;;8.27;3.90;;;;;;;;;;5018760;28;20512;-70
2023/11/29 13:33:35;;;;;;;5.30;3.47;;;;;;;;;;5020251;28;20196;-69
2023/11/29 13:36:09;;;;;;;7.33;3.73;;;;;;;;;;5016581;28;20057;-69
2023/11/29 13:38:36;;;;;;;8.33;4.13;;;;;;;;;;5019379;28;20084;-69
2023/11/29 13:41:10;;;;;;;5.00;3.23;;;;;;;;;;5020511;28;20062;-60
2023/11/29 13:43:37;;;;;;;;;;;;;;;;;;5012371;28;20054;-61
2023/11/29 13:46:04;;;;;;;5.93;3.67;;;;;;;;;;5018687;28;19944;-61
2023/11/29 13:48:39;;;;;;;6.00;3.40;;;;;;;;;;5021256;28;20049;-61
2023/11/29 13:51:07;;;;;;;7.23;4.07;;;;;;;;;;5019090;28;20065;-61
2023/11/29 13:53:35;;;;;;;5.63;3.30;;;;;;;;;;5015764;28;20603;-63
2023/11/29 13:56:10;;;;;;;5.10;3.40;;;;;;;;;;5018268;28;20119;-63
2023/11/29 13:58:37;;;;;;;6.67;3.83;;;;;;;;;;5015082;28;20463;-63
2023/11/29 14:01:13;;;;;;;9.83;4.10;;;;;;;;;;5018746;28;20050;-63
2023/11/29 14:03:40;;;;;;;5.83;3.80;;;;;;;;;;5019369;28;20897;-63
2023/11/29 14:06:17;;;;;;;5.03;3.13;;;;;;;;;;5017411;28;20493;-63
2023/11/29 14:08:44;;;;;;;6.57;3.60;;;;;;;;;;5017383;28;20618;-60
2023/11/29 14:11:11;;;;;;;6.07;3.33;;;;;;;;;;5016345;28;20097;-59
2023/11/29 14:13:45;;;;;;;5.70;3.67;;;;;;;;;;5016417;28;20500;-60
2023/11/29 14:16:14;;;;;;;6.10;3.23;;;;;;;;;;5014187;28;20523;-60
2023/11/29 14:18:48;;;;;;;5.83;2.73;;;;;;;;;;5018342;28;20053;-61
2023/11/29 14:21:23;;;;;;;7.40;3.50;;;;;;;;;;5016393;28;20063;-51
2023/11/29 14:23:56;;;;;;;6.77;3.60;;;;;;;;;;5017525;28;20092;-61
2023/11/29 14:26:23;;;;;;;;;;;;;;;;;;5018880;28;20045;-61
2023/11/29 14:28:57;;;;;;;5.90;3.27;;;;;;;;;;5017812;28;19929;-61
2023/11/29 14:31:24;;;;;;;;;;;;;;;;;;5015773;28;20085;-61
2023/11/29 14:33:53;;;;;;;4.80;2.57;;;;;;;;;;5017957;28;19991;-61
2023/11/29 14:36:26;;;;;;;4.93;3.27;;;;;;;;;;5019465;28;20057;-61
2023/11/29 14:38:53;;;;;;;;;;;;;;;;;;5019522;28;20045;-61
2023/11/29 14:41:28;;;;;;;3.83;2.43;;;;;;;;;;5013235;28;20380;-61
2023/11/29 14:43:56;;;;;;;5.57;3.50;;;;;;;;;;5020662;28;20049;-61
2023/11/29 14:46:24;;;;;;;3.97;2.30;;;;;;;;;;5019090;28;20053;-61
2023/11/29 14:48:59;;;;;;;10.50;2.60;;;;;;;;;;5016767;28;20103;-57
2023/11/29 14:51:26;;;;;;;5.87;3.43;;;;;;;;;;5017081;28;20061;-60
2023/11/29 14:53:53;;;;;;;;;;;;;;;;;;5019325;28;20479;-60
2023/11/29 14:56:27;;;;;;;4.97;3.23;;;;;;;;;;5013615;28;19935;-61
2023/11/29 14:59:06;;;;;;;4.83;3.00;;;;;;;;;;5018854;28;20532;-60
2023/11/29 15:01:40;;;;;;;4.30;2.50;;;;;;;;;;5012719;28;20049;-60
2023/11/29 15:04:07;;;;;;;3.57;2.07;;;;;;;;;;5013219;28;20065;-58
2023/11/29 15:06:34;;;;;;;;;;;;;;;;;;5013394;28;20389;-61
2023/11/29 15:09:10;;;;;;;5.20;3.03;;;;;;;;;;5009367;28;19925;-60
2023/11/29 15:11:37;;;;;;;4.70;3.20;;;;;;;;;;5014908;28;20057;-61
2023/11/29 15:14:10;;;;;;;4.67;2.90;;;;;;;;;;5019240;28;20663;-61
2023/11/29 15:16:37;;;;;;;5.18;2.53;;;;;;;;;;5030230;28;20053;-62
2023/11/29 15:19:06;;;;;;;;;;;;;;;;;;5017658;28;20396;-58
2023/11/29 15:21:40;;;;;;;6.23;3.30;;;;;;;;;;5017444;28;19925;-58
2023/11/29 15:24:08;;;;;;;;;;;;;;;;;;5017454;28;20053;-60